Time;durP1;ratioP1;P1;durP2;ratioP2;P2;SDS_P1;SDS_P2;PMS_P1;PMS_P2;Temp;Humidity;BMP_temperature;BMP_pressure;BME280_temperature;BME280_humidity;BME280_pressure;Samples;Min_cycle;Max_cycle;Signal;HPM_P1;HPM_P2
2022/02/01 00:00:56;;;;;;;2.30;2.20;;;;;;;0.99;100.00;96432.09;4858927;29;20372;-50
2022/02/01 00:03:29;;;;;;;1.50;1.37;;;;;;;1.05;100.00;96425.50;4901212;28;20667;-53
2022/02/01 00:06:06;;;;;;;1.50;1.37;;;;;;;1.00;100.00;96440.78;4950520;28;20257;-48
2022/02/01 00:08:40;;;;;;;2.07;2.03;;;;;;;0.99;100.00;96434.72;4905007;28;20215;-45
2022/02/01 00:11:21;;;;;;;1.83;1.83;;;;;;;0.94;100.00;96431.72;4951046;28;20897;-47
2022/02/01 00:14:02;;;;;;;1.60;1.60;;;;;;;0.92;100.00;96422.38;4949165;28;20563;-53
2022/02/01 00:19:43;;;;;;;1.67;1.63;;;;;;;0.98;100.00;96437.47;4923081;28;20222;-49
2022/02/01 00:36:08;;;;;;;1.57;1.47;;;;;;;0.99;100.00;96480.88;4933672;28;20876;-53
2022/02/01 00:38:42;;;;;;;1.17;1.17;;;;;;;0.92;100.00;96474.53;4932702;28;20270;-58
2022/02/01 00:41:12;;;;;;;1.30;1.30;;;;;;;1.02;100.00;96485.81;4945853;28;20269;-49
2022/02/01 00:43:40;;;;;;;1.00;1.00;;;;;;;0.92;100.00;96495.41;4911740;28;20238;-52
2022/02/01 00:46:10;;;;;;;1.70;1.70;;;;;;;0.89;100.00;96493.91;4946816;28;20210;-51
2022/02/01 00:48:38;;;;;;;1.50;1.50;;;;;;;0.89;100.00;96503.53;4949595;28;20218;-51
2022/02/01 00:51:11;;;;;;;1.40;1.40;;;;;;;0.88;100.00;96510.53;4939257;28;20237;-45
2022/02/01 00:53:40;;;;;;;1.50;1.50;;;;;;;0.74;100.00;96510.94;4935227;28;20278;-52
2022/02/01 00:56:09;;;;;;;1.63;1.63;;;;;;;0.71;100.00;96525.91;4948618;28;20214;-49
2022/02/01 00:58:38;;;;;;;1.40;1.40;;;;;;;0.68;100.00;96536.63;4952864;28;20234;-51
2022/02/01 01:01:06;;;;;;;1.57;1.40;;;;;;;0.69;100.00;96547.88;4922794;28;20219;-52
2022/02/01 01:03:37;;;;;;;1.10;1.10;;;;;;;0.71;100.00;96552.00;4954297;28;20226;-51
2022/02/01 01:06:06;;;;;;;1.23;1.23;;;;;;;0.71;100.00;96548.56;4940811;28;20214;-47
2022/02/01 01:08:34;;;;;;;1.40;1.40;;;;;;;0.64;100.00;96548.28;4948763;28;20348;-49
2022/02/01 01:11:03;;;;;;;1.33;1.33;;;;;;;0.64;100.00;96540.47;4931967;28;20214;-46
2022/02/01 01:14:06;;;;;;;1.10;1.10;;;;;;;0.57;100.00;96540.22;4950605;28;20301;-53
2022/02/01 01:16:57;;;;;;;1.40;1.40;;;;;;;0.51;100.00;96545.94;4947029;28;20718;-47
2022/02/01 01:44:29;;;;;;;2.10;2.00;;;;;;;0.30;100.00;96637.28;4907302;29;20259;-50
2022/02/01 01:53:11;;;;;;;2.10;2.00;;;;;;;0.19;100.00;96642.59;4906380;29;20240;-51
2022/02/01 01:55:41;;;;;;;2.27;2.17;;;;;;;0.07;100.00;96639.25;4905379;29;20209;-50
2022/02/01 01:58:10;;;;;;;2.47;2.37;;;;;;;0.16;100.00;96638.47;4890878;29;20310;-50
2022/02/01 02:00:58;;;;;;;2.10;2.00;;;;;;;0.15;100.00;96644.63;4899268;29;20294;-53
2022/02/01 02:03:26;;;;;;;2.00;1.90;;;;;;;0.14;100.00;96650.78;4902594;29;22475;-50
2022/02/01 02:05:54;;;;;;;2.43;2.33;;;;;;;0.10;100.00;96642.44;4907185;29;20227;-50
2022/02/01 02:08:24;;;;;;;2.83;2.63;;;;;;;0.10;100.00;96652.84;4908007;29;20210;-53
2022/02/01 02:10:58;;;;;;;2.17;2.03;;;;;;;0.09;100.00;96655.59;4889591;29;20314;-49
2022/02/01 02:16:14;;;;;;;2.70;2.50;;;;;;;-0.02;100.00;96667.75;4950732;28;20715;-52
2022/02/01 02:18:42;;;;;;;2.40;2.30;;;;;;;0.02;100.00;96664.88;4898927;28;20235;-48
2022/02/01 02:21:12;;;;;;;2.00;1.90;;;;;;;-0.06;100.00;96671.56;4939876;28;20640;-44
2022/02/01 02:23:40;;;;;;;2.17;2.07;;;;;;;-0.04;100.00;96666.22;4952804;28;20242;-47
2022/02/01 02:26:13;;;;;;;2.40;2.20;;;;;;;0.03;100.00;96683.00;4934030;28;20413;-47
2022/02/01 02:28:41;;;;;;;2.23;2.13;;;;;;;0.01;100.00;96679.69;4927947;28;20253;-52
2022/02/01 02:31:09;;;;;;;2.30;2.20;;;;;;;0.06;100.00;96682.72;4949555;28;20734;-49
2022/02/01 02:33:38;;;;;;;1.90;1.90;;;;;;;0.02;100.00;96693.53;4899763;28;20234;-47
2022/02/01 02:36:12;;;;;;;2.80;2.60;;;;;;;-0.07;100.00;96692.53;4893682;28;20228;-49
2022/02/01 02:38:45;;;;;;;3.43;2.47;;;;;;;-0.15;100.00;96685.38;4948527;28;20796;-46
2022/02/01 02:41:30;;;;;;;2.60;2.40;;;;;;;-0.24;100.00;96689.56;4945610;28;20504;-48
2022/02/01 02:46:46;;;;;;;2.60;2.50;;;;;;;-0.26;100.00;96704.50;4948290;28;20206;-47
2022/02/01 02:49:16;;;;;;;2.80;2.70;;;;;;;-0.28;100.00;96700.34;4938691;28;20321;-47
2022/02/01 02:51:44;;;;;;;2.83;2.63;;;;;;;-0.30;100.00;96708.31;4904748;28;20599;-53
2022/02/01 02:54:15;;;;;;;2.30;2.20;;;;;;;-0.33;100.00;96721.59;4941715;28;20282;-49
2022/02/01 02:56:44;;;;;;;2.50;2.40;;;;;;;-0.34;100.00;96725.94;4951570;28;20492;-48
2022/02/01 02:59:14;;;;;;;3.20;2.90;;;;;;;-0.26;100.00;96733.13;4922740;28;20249;-47
2022/02/01 03:01:42;;;;;;;2.40;2.30;;;;;;;-0.23;100.00;96725.06;4948157;28;20270;-55
2022/02/01 03:04:11;;;;;;;2.53;2.30;;;;;;;-0.27;100.00;96726.28;4947895;28;20333;-48
2022/02/01 03:06:39;;;;;;;2.97;2.77;;;;;;;-0.36;100.00;96733.06;4900829;28;20242;-50
2022/02/01 03:09:07;;;;;;;2.47;2.27;;;;;;;-0.32;100.00;96742.25;4945366;28;20210;-50
2022/02/01 03:11:38;;;;;;;2.80;2.60;;;;;;;-0.35;100.00;96763.34;4945335;28;20630;-46
2022/02/01 03:14:19;;;;;;;2.70;2.50;;;;;;;-0.27;100.00;96770.53;4926689;28;20753;-47
2022/02/01 03:17:11;;;;;;;2.97;2.87;;;;;;;-0.24;100.00;96765.06;4950803;28;20289;-45
2022/02/01 03:19:49;;;;;;;2.73;2.60;;;;;;;-0.24;100.00;96762.47;4945486;28;20639;-50
2022/02/01 03:22:19;;;;;;;2.50;2.40;;;;;;;-0.30;100.00;96763.78;4899705;28;20910;-46
2022/02/01 03:24:47;;;;;;;2.40;2.30;;;;;;;-0.31;100.00;96763.94;4947121;28;20257;-47
2022/02/01 03:27:17;;;;;;;2.50;2.40;;;;;;;-0.35;100.00;96773.75;4943439;28;20691;-49
2022/02/01 03:29:45;;;;;;;2.53;2.43;;;;;;;-0.29;100.00;96793.28;4925581;28;20312;-46
2022/02/01 03:32:14;;;;;;;2.50;2.37;;;;;;;-0.33;100.00;96797.88;4937996;28;20441;-46
2022/02/01 03:34:43;;;;;;;2.83;2.63;;;;;;;-0.32;100.00;96798.72;4950013;28;20874;-46
2022/02/01 03:37:11;;;;;;;2.33;2.23;;;;;;;-0.29;100.00;96808.88;4898983;28;21110;-50
2022/02/01 03:39:39;;;;;;;2.00;1.90;;;;;;;-0.27;100.00;96799.19;4944234;28;20222;-51
2022/02/01 03:42:08;;;;;;;2.57;2.37;;;;;;;-0.33;100.00;96802.28;4948483;28;20250;-47
2022/02/01 03:44:38;;;;;;;2.83;2.67;;;;;;;-0.25;100.00;96810.28;4950143;28;20253;-52
2022/02/01 03:47:06;;;;;;;2.13;2.03;;;;;;;-0.34;100.00;96813.66;4922872;28;20269;-51
2022/02/01 03:49:36;;;;;;;2.50;2.40;;;;;;;-0.27;100.00;96825.22;4944217;28;20230;-50
2022/02/01 03:52:06;;;;;;;2.10;2.00;;;;;;;-0.29;100.00;96829.72;4923134;28;20249;-50
2022/02/01 03:54:36;;;;;;;2.60;2.50;;;;;;;-0.30;100.00;96823.66;4943994;28;20238;-50
2022/02/01 03:57:06;;;;;;;2.77;2.57;;;;;;;-0.27;100.00;96826.97;4947725;28;20230;-55
2022/02/01 03:59:35;;;;;;;2.20;2.10;;;;;;;-0.30;100.00;96823.66;4948621;28;20234;-52
2022/02/01 04:02:05;;;;;;;2.00;1.90;;;;;;;-0.28;100.00;96833.97;4927508;28;20218;-53
2022/02/01 04:04:34;;;;;;;3.23;3.03;;;;;;;-0.34;100.00;96843.09;4949212;28;20241;-48
2022/02/01 04:07:04;;;;;;;2.60;2.50;;;;;;;-0.24;100.00;96852.75;4947794;28;20214;-54
2022/02/01 04:09:32;;;;;;;2.47;2.33;;;;;;;-0.27;100.00;96853.84;4916657;28;20211;-45
2022/02/01 04:12:03;;;;;;;2.83;2.50;;;;;;;-0.28;100.00;96862.63;4917534;28;21085;-51
2022/02/01 04:14:32;;;;;;;2.43;2.27;;;;;;;-0.21;100.00;96863.78;4947061;28;20329;-54
2022/02/01 04:17:02;;;;;;;2.30;2.20;;;;;;;-0.34;100.00;96882.16;4927953;28;20302;-47
2022/02/01 04:19:33;;;;;;;2.00;1.90;;;;;;;-0.37;100.00;96884.19;4946997;28;20222;-46
2022/02/01 04:22:02;;;;;;;2.07;1.97;;;;;;;-0.51;100.00;96874.88;4945505;28;20202;-49
2022/02/01 04:24:32;;;;;;;1.83;1.83;;;;;;;-0.53;100.00;96889.78;4910647;28;20725;-55
2022/02/01 04:27:01;;;;;;;2.13;2.03;;;;;;;-0.54;100.00;96901.97;4944587;28;20214;-50
2022/02/01 04:29:29;;;;;;;1.90;1.83;;;;;;;-0.53;100.00;96908.00;4946384;28;20242;-51
2022/02/01 04:31:57;;;;;;;2.20;2.10;;;;;;;-0.61;100.00;96908.59;4942598;28;20261;-44
2022/02/01 04:34:26;;;;;;;2.17;2.07;;;;;;;-0.75;100.00;96907.91;4946133;28;20227;-47
2022/02/01 04:36:55;;;;;;;2.10;1.90;;;;;;;-0.69;100.00;96919.59;4942247;28;20267;-51
2022/02/01 04:39:23;;;;;;;2.27;2.17;;;;;;;-0.81;100.00;96912.75;4947522;28;20265;-52
2022/02/01 04:41:53;;;;;;;2.03;1.93;;;;;;;-0.91;100.00;96908.28;4896550;28;20240;-52
2022/02/01 04:44:21;;;;;;;2.50;2.30;;;;;;;-0.87;100.00;96898.44;4888339;28;20277;-51
2022/02/01 04:46:49;;;;;;;2.40;2.27;;;;;;;-0.75;100.00;96897.50;4946836;28;20210;-50
2022/02/01 04:49:17;;;;;;;3.03;2.83;;;;;;;-0.84;100.00;96903.41;4937766;28;20481;-48
2022/02/01 04:51:46;;;;;;;3.63;3.33;;;;;;;-0.74;100.00;96903.53;4947240;28;20303;-47
2022/02/01 04:54:15;;;;;;;3.30;3.10;;;;;;;-0.77;100.00;96907.19;4905164;28;20485;-50
2022/02/01 04:56:44;;;;;;;3.03;2.77;;;;;;;-0.67;100.00;96915.09;4943536;28;20687;-47
2022/02/01 04:59:12;;;;;;;3.07;2.87;;;;;;;-0.70;100.00;96915.34;4895870;28;20235;-47
2022/02/01 05:01:40;;;;;;;2.70;2.60;;;;;;;-0.65;100.00;96920.19;4946653;28;21049;-51
2022/02/01 05:04:10;;;;;;;2.97;2.77;;;;;;;-0.65;100.00;96913.22;4949658;28;20227;-52
2022/02/01 05:06:38;;;;;;;3.27;2.87;;;;;;;-0.70;100.00;96915.34;4945604;28;20285;-52
2022/02/01 05:09:09;;;;;;;3.10;2.90;;;;;;;-0.69;100.00;96917.00;4923319;28;20214;-50
2022/02/01 05:11:38;;;;;;;3.50;3.30;;;;;;;-0.80;100.00;96925.63;4942558;28;20203;-55
2022/02/01 05:14:12;;;;;;;2.97;2.77;;;;;;;-0.56;100.00;96927.28;4903599;28;20609;-54
2022/02/01 05:16:57;;;;;;;3.50;3.30;;;;;;;-0.69;100.00;96917.00;4944508;28;20366;-52
2022/02/01 05:19:35;;;;;;;3.90;3.60;;;;;;;-0.63;100.00;96937.34;4943639;28;20502;-51
2022/02/01 05:22:07;;;;;;;3.23;3.03;;;;;;;-0.77;100.00;96950.59;4943628;28;20655;-52
2022/02/01 05:24:38;;;;;;;3.87;3.53;;;;;;;-0.73;100.00;96952.84;4920497;28;21711;-52
2022/02/01 05:27:11;;;;;;;3.90;3.50;;;;;;;-0.62;100.00;96957.19;4948734;28;20631;-49
2022/02/01 05:29:40;;;;;;;4.03;3.33;;;;;;;-0.65;100.00;96962.66;4900594;28;20416;-49
2022/02/01 05:32:22;;;;;;;4.37;3.50;;;;;;;-0.68;100.00;96967.28;4947729;28;20253;-49
2022/02/01 05:34:52;;;;;;;4.30;3.90;;;;;;;-0.64;100.00;96973.91;4948213;28;20280;-49
2022/02/01 05:37:21;;;;;;;3.67;3.37;;;;;;;-0.63;100.00;96972.97;4946760;28;20206;-51
2022/02/01 05:39:49;;;;;;;5.23;4.10;;;;;;;-0.68;100.00;96972.50;4937347;28;20235;-52
2022/02/01 05:42:24;;;;;;;4.27;3.97;;;;;;;-0.80;100.00;96984.66;4947425;28;20246;-49
2022/02/01 05:44:52;;;;;;;3.47;3.20;;;;;;;-0.67;100.00;96982.75;4907276;28;20241;-48
2022/02/01 05:47:21;;;;;;;4.30;3.90;;;;;;;-0.53;100.00;96991.28;4949576;28;20684;-51
2022/02/01 05:49:49;;;;;;;4.37;3.57;;;;;;;-0.69;100.00;96997.66;4949833;28;21234;-53
2022/02/01 05:52:17;;;;;;;4.07;3.67;;;;;;;-0.56;100.00;96989.75;4951203;28;20711;-48
2022/02/01 05:54:45;;;;;;;4.30;4.00;;;;;;;-0.52;100.00;96992.94;4933560;28;20235;-49
2022/02/01 05:57:14;;;;;;;4.20;3.90;;;;;;;-0.49;100.00;96992.72;4946040;28;20679;-51
2022/02/01 05:59:44;;;;;;;4.63;4.23;;;;;;;-0.65;100.00;96993.06;4949449;28;20831;-50
2022/02/01 06:02:14;;;;;;;4.53;4.17;;;;;;;-0.53;100.00;96986.91;4902576;28;20301;-52
2022/02/01 06:04:42;;;;;;;4.77;3.90;;;;;;;-0.55;100.00;96982.78;4944979;28;20817;-49
2022/02/01 06:07:10;;;;;;;4.77;4.37;;;;;;;-0.50;100.00;96993.66;4942766;28;21787;-50
2022/02/01 06:09:39;;;;;;;4.20;3.80;;;;;;;-0.52;100.00;96987.75;4950132;28;20916;-50
2022/02/01 06:12:08;;;;;;;4.70;4.23;;;;;;;-0.52;100.00;96990.34;4932485;28;20582;-50
2022/02/01 06:14:38;;;;;;;7.10;4.00;;;;;;;-0.49;100.00;96997.91;4932064;28;20404;-53
2022/02/01 06:17:08;;;;;;;4.27;3.93;;;;;;;-0.54;100.00;96997.44;4909297;28;20241;-51
2022/02/01 06:19:37;;;;;;;4.73;4.23;;;;;;;-0.60;100.00;96993.53;4948943;28;20868;-52
2022/02/01 06:22:06;;;;;;;5.83;4.50;;;;;;;-0.57;100.00;96995.91;4944208;28;20773;-53
2022/02/01 06:24:35;;;;;;;4.63;4.23;;;;;;;-0.59;100.00;96996.00;4946724;28;21036;-49
2022/02/01 06:27:03;;;;;;;4.37;3.93;;;;;;;-0.47;100.00;96994.22;4930992;28;20258;-47
2022/02/01 06:29:32;;;;;;;4.33;3.97;;;;;;;-0.65;100.00;96990.47;4946803;28;20298;-47
2022/02/01 06:32:00;;;;;;;5.03;4.63;;;;;;;-0.67;100.00;96982.75;4903036;28;20658;-51
2022/02/01 06:34:30;;;;;;;4.57;4.17;;;;;;;-0.57;100.00;97002.88;4947310;28;20222;-51
2022/02/01 06:36:59;;;;;;;5.07;4.57;;;;;;;-0.63;100.00;97015.41;4944664;28;20391;-53
2022/02/01 06:39:27;;;;;;;4.90;4.50;;;;;;;-0.57;100.00;97011.50;4945452;28;20896;-48
2022/02/01 06:41:56;;;;;;;5.00;4.60;;;;;;;-0.59;100.00;97008.19;4926408;28;20230;-49
2022/02/01 06:44:25;;;;;;;5.60;4.63;;;;;;;-0.48;100.00;97012.59;4946183;28;20257;-46
2022/02/01 06:46:53;;;;;;;4.93;4.57;;;;;;;-0.52;100.00;97000.75;4909054;28;20209;-53
2022/02/01 06:49:22;;;;;;;4.63;4.23;;;;;;;-0.38;100.00;97023.94;4897483;28;20245;-53
2022/02/01 06:51:52;;;;;;;5.60;5.10;;;;;;;-0.33;100.00;97026.19;4937816;28;20313;-50
2022/02/01 06:54:20;;;;;;;5.87;4.47;;;;;;;-0.35;100.00;97026.28;4924075;28;20321;-48
2022/02/01 06:56:48;;;;;;;5.23;4.80;;;;;;;-0.41;100.00;97025.94;4942668;28;20526;-51
2022/02/01 06:59:16;;;;;;;5.57;4.53;;;;;;;-0.46;100.00;97027.13;4946581;28;20293;-49
2022/02/01 07:01:44;;;;;;;5.83;5.27;;;;;;;-0.48;100.00;97030.81;4941777;28;20281;-48
2022/02/01 07:04:13;;;;;;;4.67;4.10;;;;;;;-0.42;100.00;97042.50;4924160;28;20234;-51
2022/02/01 07:06:41;;;;;;;5.17;4.23;;;;;;;-0.34;100.00;97051.38;4903418;28;20468;-50
2022/02/01 07:09:11;;;;;;;5.20;4.70;;;;;;;-0.33;100.00;97057.44;4948410;28;20281;-52
2022/02/01 07:11:39;;;;;;;8.50;5.33;;;;;;;-0.39;100.00;97053.50;4931970;28;20350;-53
2022/02/01 07:14:08;;;;;;;6.23;5.20;;;;;;;-0.40;100.00;97062.28;4948699;28;20349;-47
2022/02/01 07:16:36;;;;;;;6.10;5.23;;;;;;;-0.31;100.00;97071.97;4949260;28;20320;-49
2022/02/01 07:19:05;;;;;;;5.83;5.27;;;;;;;-0.24;100.00;97076.69;4945324;28;20366;-50
2022/02/01 07:21:33;;;;;;;5.23;4.73;;;;;;;-0.24;100.00;97087.97;4906441;28;20599;-51
2022/02/01 07:24:02;;;;;;;5.77;5.00;;;;;;;-0.16;100.00;97090.78;4941582;28;20372;-48
2022/02/01 07:26:32;;;;;;;7.20;5.30;;;;;;;-0.21;100.00;97097.28;4937646;28;20246;-45
2022/02/01 07:29:00;;;;;;;5.60;5.10;;;;;;;-0.24;100.00;97107.94;4942601;28;20889;-48
2022/02/01 07:31:28;;;;;;;5.43;4.93;;;;;;;-0.35;100.00;97104.41;4950417;28;20285;-48
2022/02/01 07:33:57;;;;;;;5.90;5.30;;;;;;;-0.40;100.00;97098.72;4943813;28;20898;-50
2022/02/01 07:36:25;;;;;;;5.53;4.80;;;;;;;-0.23;100.00;97092.22;4905165;28;20661;-49
2022/02/01 07:38:53;;;;;;;6.57;5.33;;;;;;;-0.41;100.00;97089.25;4944100;28;20333;-45
2022/02/01 07:41:21;;;;;;;6.13;5.57;;;;;;;-0.21;100.00;97086.88;4935097;28;20257;-53
2022/02/01 07:43:53;;;;;;;7.60;5.37;;;;;;;-0.18;100.00;97086.66;4946703;28;20957;-47
2022/02/01 07:46:21;;;;;;;6.33;5.63;;;;;;;-0.29;100.00;97100.50;4948096;28;20203;-47
2022/02/01 07:48:50;;;;;;;6.17;5.53;;;;;;;-0.31;100.00;97097.19;4946183;28;20292;-49
2022/02/01 07:51:18;;;;;;;6.73;5.80;;;;;;;-0.16;100.00;97085.59;4950910;28;20238;-53
2022/02/01 07:53:46;;;;;;;7.03;5.77;;;;;;;-0.18;100.00;97086.66;4904749;28;20321;-52
2022/02/01 07:56:14;;;;;;;6.03;5.20;;;;;;;-0.07;100.00;97089.25;4945558;28;20266;-49
2022/02/01 07:58:43;;;;;;;7.43;6.13;;;;;;;0.12;100.00;97086.03;4933216;28;20569;-49
2022/02/01 08:01:12;;;;;;;6.77;6.07;;;;;;;0.00;100.00;97087.00;4945537;28;20420;-51
2022/02/01 08:03:41;;;;;;;7.53;6.00;;;;;;;0.13;100.00;97076.44;4946619;28;20754;-51
2022/02/01 08:06:09;;;;;;;6.10;5.17;;;;;;;0.22;100.00;97080.94;4946553;28;20418;-49
2022/02/01 08:08:37;;;;;;;6.70;6.00;;;;;;;0.21;100.00;97084.50;4899434;28;20214;-51
2022/02/01 08:11:10;;;;;;;6.37;5.57;;;;;;;0.23;100.00;97093.03;4944685;28;20277;-49
2022/02/01 08:16:46;;;;;;;5.77;5.10;;;;;;;0.25;100.00;97103.31;4942284;28;20726;-47
2022/02/01 08:19:25;;;;;;;6.57;5.17;;;;;;;0.10;100.00;97111.41;4946761;28;20273;-49
2022/02/01 08:21:55;;;;;;;7.67;5.30;;;;;;;0.14;100.00;97110.19;4940800;28;20686;-51
2022/02/01 08:24:23;;;;;;;5.80;4.70;;;;;;;0.13;100.00;97112.91;4901361;28;20249;-51
2022/02/01 08:26:51;;;;;;;5.20;4.33;;;;;;;0.08;100.00;97113.28;4942087;28;20211;-50
2022/02/01 08:29:19;;;;;;;6.33;4.57;;;;;;;0.20;100.00;97114.13;4932026;28;20219;-50
2022/02/01 08:31:50;;;;;;;7.37;5.40;;;;;;;0.16;100.00;97127.50;4946066;28;20333;-49
2022/02/01 08:34:19;;;;;;;5.93;5.20;;;;;;;0.31;100.00;97121.06;4948350;28;20229;-48
2022/02/01 08:36:48;;;;;;;5.83;3.93;;;;;;;0.31;100.00;97133.28;4948988;28;20209;-49
2022/02/01 08:39:16;;;;;;;7.03;4.00;;;;;;;0.14;100.00;97125.00;4905664;28;20225;-47
2022/02/01 08:41:45;;;;;;;3.73;3.43;;;;;;;0.18;100.00;97131.63;4945447;28;20226;-49
2022/02/01 08:44:15;;;;;;;4.23;2.97;;;;;;;0.03;100.00;97127.63;4938333;28;20261;-51
2022/02/01 08:46:43;;;;;;;4.67;3.27;;;;;;;-0.10;100.00;97136.38;4930779;28;20697;-50
2022/02/01 08:49:13;;;;;;;3.73;3.13;;;;;;;0.03;100.00;97133.66;4945226;28;20207;-48
2022/02/01 08:51:44;;;;;;;4.53;3.10;;;;;;;-0.12;100.00;97130.47;4945889;28;20688;-50
2022/02/01 08:54:17;;;;;;;4.00;3.60;;;;;;;-0.11;100.00;97141.69;4907631;28;20917;-50
2022/02/01 08:59:44;;;;;;;5.00;2.80;;;;;;;0.10;100.00;97126.19;4905865;29;20218;-50
2022/02/01 09:02:14;;;;;;;3.23;2.93;;;;;;;0.40;100.00;97129.94;4895755;29;20235;-49
2022/02/01 09:04:44;;;;;;;5.00;3.13;;;;;;;0.31;100.00;97135.88;4905395;29;20559;-46
2022/02/01 09:07:12;;;;;;;2.43;2.30;;;;;;;0.30;100.00;97140.25;4901021;29;20661;-47
2022/02/01 09:09:41;;;;;;;3.03;2.80;;;;;;;0.43;100.00;97142.72;4906997;29;20714;-48
2022/02/01 09:12:09;;;;;;;3.50;2.70;;;;;;;0.42;100.00;97141.06;4863343;29;20256;-51
2022/02/01 09:14:43;;;;;;;3.70;3.30;;;;;;;0.50;100.00;97140.47;4905213;29;20231;-48
2022/02/01 09:17:12;;;;;;;3.93;2.63;;;;;;;0.52;100.00;97160.25;4909863;29;20235;-49
2022/02/01 09:19:41;;;;;;;6.67;2.53;;;;;;;0.67;100.00;97150.38;4908298;29;20822;-52
2022/02/01 09:22:11;;;;;;;3.23;2.70;;;;;;;0.54;100.00;97154.94;4903002;29;20228;-47
2022/02/01 09:24:41;;;;;;;3.60;2.80;;;;;;;0.49;100.00;97137.03;4907876;29;20418;-52
2022/02/01 09:27:10;;;;;;;6.37;3.27;;;;;;;0.46;100.00;97142.50;4867070;29;20471;-51
2022/02/01 09:29:38;;;;;;;8.30;3.77;;;;;;;0.54;100.00;97141.88;4910210;29;20896;-50
2022/02/01 09:32:07;;;;;;;7.93;2.87;;;;;;;0.42;100.00;97147.13;4906585;29;20346;-47
2022/02/01 09:34:55;;;;;;;3.93;2.47;;;;;;;0.31;100.00;97154.13;4944582;28;20234;-46
2022/02/01 09:37:25;;;;;;;3.40;2.47;;;;;;;0.26;100.00;97155.31;4943703;28;20214;-50
2022/02/01 09:39:53;;;;;;;6.83;2.63;;;;;;;0.19;100.00;97155.91;4947412;28;20583;-52
2022/02/01 09:42:26;;;;;;;7.70;2.73;;;;;;;0.35;100.00;97156.34;4904671;28;20787;-52
2022/02/01 09:44:55;;;;;;;4.00;2.90;;;;;;;0.44;100.00;97157.44;4948136;28;20222;-50
2022/02/01 09:47:38;;;;;;;3.20;2.70;;;;;;;0.52;100.00;97162.03;4944518;28;20285;-50
2022/02/01 09:50:08;;;;;;;8.23;3.00;;;;;;;0.70;100.00;97165.78;4948586;28;20211;-51
2022/02/01 09:52:39;;;;;;;6.70;3.00;;;;;;;0.75;100.00;97168.03;4947034;28;20217;-50
2022/02/01 09:55:09;;;;;;;4.10;3.03;;;;;;;0.78;100.00;97140.91;4948902;28;20229;-49
2022/02/01 09:57:40;;;;;;;11.47;4.40;;;;;;;0.67;100.00;97145.16;4905604;28;20353;-53
2022/02/01 10:00:15;;;;;;;6.20;3.03;;;;;;;0.61;100.00;97142.25;4946156;28;20300;-46
2022/02/01 10:03:04;;;;;;;3.17;2.30;;;;;;;0.60;100.00;97148.41;4950819;28;20226;-49
2022/02/01 10:05:35;;;;;;;5.77;2.57;;;;;;;0.63;100.00;97148.97;4950162;28;20207;-52
2022/02/01 10:08:05;;;;;;;4.47;3.20;;;;;;;0.53;100.00;97154.09;4942436;28;20495;-49
2022/02/01 10:10:34;;;;;;;8.43;2.90;;;;;;;0.66;100.00;97158.34;4950469;28;20203;-51
2022/02/01 10:13:12;;;;;;;7.10;3.67;;;;;;;0.84;100.00;97141.22;4924315;28;20651;-50
2022/02/01 10:15:40;;;;;;;6.57;3.00;;;;;;;0.91;100.00;97146.78;4947113;28;20660;-51
2022/02/01 10:18:09;;;;;;;5.87;2.80;;;;;;;0.92;100.00;97142.38;4948008;28;20586;-50
2022/02/01 10:20:41;;;;;;;10.60;3.43;;;;;;;0.79;100.00;97132.13;4947417;28;20322;-51
2022/02/01 10:23:24;;;;;;;10.50;3.93;;;;;;;0.72;100.00;97123.94;4943954;28;20285;-47
2022/02/01 10:26:04;;;;;;;6.37;2.50;;;;;;;0.71;100.00;97106.63;4949063;28;20269;-51
2022/02/01 10:28:42;;;;;;;6.73;2.53;;;;;;;0.70;100.00;97134.50;4949749;28;20290;-53
2022/02/01 10:31:15;;;;;;;6.33;2.90;;;;;;;0.75;100.00;97136.75;4900988;28;20232;-47
2022/02/01 10:34:00;;;;;;;6.00;2.43;;;;;;;0.66;100.00;97129.66;4950568;28;20233;-52
2022/02/01 10:36:39;;;;;;;4.60;2.87;;;;;;;0.57;100.00;97142.50;4949324;28;20950;-50
2022/02/01 10:39:19;;;;;;;5.83;3.47;;;;;;;0.45;100.00;97138.22;4944197;28;20214;-51
2022/02/01 10:41:59;;;;;;;7.00;3.23;;;;;;;0.56;100.00;97142.59;4947667;28;20300;-50
2022/02/01 10:44:41;;;;;;;6.07;3.17;;;;;;;0.66;100.00;97142.69;4901841;28;21501;-52
2022/02/01 10:47:12;;;;;;;9.50;3.77;;;;;;;0.79;100.00;97135.53;4945082;28;20317;-50
2022/02/01 10:50:02;;;;;;;9.30;4.27;;;;;;;0.78;100.00;97114.81;4944586;28;20206;-47
2022/02/01 10:52:34;;;;;;;5.93;3.43;;;;;;;1.10;100.00;97108.72;4952293;28;20242;-49
2022/02/01 10:55:06;;;;;;;11.23;4.10;;;;;;;1.29;100.00;97098.44;4946665;28;20679;-49
2022/02/01 10:57:34;;;;;;;5.50;2.97;;;;;;;1.34;100.00;97105.06;4947555;28;20206;-53
2022/02/01 11:00:05;;;;;;;7.57;3.83;;;;;;;1.65;100.00;97105.09;4906383;28;20230;-51
2022/02/01 11:02:33;;;;;;;7.13;3.80;;;;;;;1.81;100.00;97110.66;4944788;28;20509;-51
2022/02/01 11:05:02;;;;;;;6.73;3.50;;;;;;;1.85;100.00;97091.16;4895497;28;20420;-50
2022/02/01 11:07:51;;;;;;;8.83;3.83;;;;;;;1.52;100.00;97087.00;4945753;28;20512;-51
2022/02/01 11:10:21;;;;;;;6.57;2.77;;;;;;;1.48;100.00;97076.00;4942875;28;20214;-54
2022/02/01 11:12:49;;;;;;;5.17;3.93;;;;;;;1.39;100.00;97071.56;4946776;28;20346;-52
2022/02/01 11:15:21;;;;;;;5.80;3.57;;;;;;;1.44;100.00;97069.38;4945659;28;21912;-50
2022/02/01 11:17:51;;;;;;;7.47;3.23;;;;;;;1.48;100.00;97067.34;4936730;28;20241;-52
2022/02/01 11:20:27;;;;;;;4.13;3.33;;;;;;;1.42;100.00;97066.91;4904685;28;20237;-51
2022/02/01 11:23:02;;;;;;;9.67;3.57;;;;;;;1.23;100.00;97045.91;4946440;28;20671;-54
2022/02/01 11:25:44;;;;;;;2.77;2.57;;;;;;;1.34;100.00;97039.78;4945537;28;20206;-46
2022/02/01 11:28:21;;;;;;;7.43;3.30;;;;;;;1.21;100.00;97037.38;4948598;28;20293;-56
2022/02/01 11:30:55;;;;;;;6.77;3.37;;;;;;;1.23;100.00;97035.47;4929916;28;23338;-54
2022/02/01 11:33:37;;;;;;;5.43;2.87;;;;;;;1.40;100.00;97027.06;4944389;28;20226;-47
2022/02/01 11:36:08;;;;;;;4.97;3.10;;;;;;;1.82;100.00;97028.72;4907219;28;20257;-50
2022/02/01 11:38:36;;;;;;;8.50;3.67;;;;;;;1.94;100.00;97026.00;4942435;28;20771;-48
2022/02/01 11:41:07;;;;;;;8.77;3.27;;;;;;;1.98;100.00;97019.56;4948519;28;20237;-53
2022/02/01 11:43:40;;;;;;;4.30;2.37;;;;;;;1.97;100.00;97012.69;4943254;28;20297;-52
2022/02/01 11:46:10;;;;;;;5.87;3.00;;;;;;;1.81;100.00;97011.38;4950121;28;20243;-50
2022/02/01 11:48:41;;;;;;;6.90;3.63;;;;;;;1.55;100.00;97022.31;4927847;28;20329;-52
2022/02/01 11:51:11;;;;;;;3.47;2.77;;;;;;;1.47;100.00;97014.28;4902391;28;20770;-51
2022/02/01 11:53:40;;;;;;;8.70;3.77;;;;;;;1.35;100.00;97010.94;4945691;28;20463;-52
2022/02/01 11:56:12;;;;;;;5.13;3.10;;;;;;;1.52;100.00;97001.69;4950535;28;20210;-51
2022/02/01 11:58:42;;;;;;;7.37;3.13;;;;;;;1.58;100.00;97000.31;4942322;28;20742;-53
2022/02/01 12:01:22;;;;;;;7.07;3.87;;;;;;;1.69;100.00;97000.22;4945250;28;20219;-54
2022/02/01 12:04:01;;;;;;;5.53;3.07;;;;;;;1.71;100.00;96992.25;4930806;28;20323;-56
2022/02/01 12:06:38;;;;;;;9.20;3.33;;;;;;;1.65;100.00;96988.38;4899524;28;20226;-52
2022/02/01 12:09:11;;;;;;;4.20;2.77;;;;;;;1.55;100.00;96982.28;4947128;28;20214;-44
2022/02/01 12:11:41;;;;;;;4.90;2.77;;;;;;;1.60;100.00;96990.56;4942817;28;20771;-48
2022/02/01 12:14:09;;;;;;;5.50;2.80;;;;;;;1.46;100.00;96988.31;4947273;28;20250;-48
2022/02/01 12:16:37;;;;;;;6.37;3.30;;;;;;;1.25;100.00;96979.56;4942201;28;20206;-54
2022/02/01 12:19:09;;;;;;;6.80;2.47;;;;;;;1.26;100.00;96981.22;4930714;28;20280;-49
2022/02/01 12:21:43;;;;;;;3.63;2.67;;;;;;;1.05;100.00;96977.81;4899877;28;20877;-49
2022/02/01 12:24:12;;;;;;;5.07;3.17;;;;;;;1.00;100.00;96986.84;4940804;28;20327;-55
2022/02/01 12:26:43;;;;;;;7.23;3.47;;;;;;;0.90;100.00;96975.53;4947104;28;20214;-46
2022/02/01 12:29:14;;;;;;;5.40;3.23;;;;;;;0.91;100.00;96973.75;4945623;28;20222;-52
2022/02/01 12:31:43;;;;;;;3.70;3.40;;;;;;;0.77;100.00;96967.09;4943083;28;21002;-49
2022/02/01 12:34:13;;;;;;;13.67;4.13;;;;;;;0.75;100.00;96961.16;4931463;28;20230;-52
2022/02/01 12:36:43;;;;;;;4.10;2.27;;;;;;;0.80;100.00;96952.00;4900400;28;20464;-50
2022/02/01 12:39:15;;;;;;;4.43;2.50;;;;;;;0.77;100.00;96959.28;4944213;28;20301;-49
2022/02/01 12:41:54;;;;;;;2.87;2.57;;;;;;;0.74;100.00;96954.28;4944841;28;20785;-52
2022/02/01 12:47:16;;;;;;;3.90;2.50;;;;;;;0.82;100.00;96944.06;4950133;28;20206;-49
2022/02/01 12:50:05;;;;;;;4.63;2.67;;;;;;;0.98;100.00;96941.81;4936355;28;20273;-52